sensor_id;sensor_type;location;lat;lon;timestamp;P1;durP1;ratioP1;P2;durP2;ratioP2
4636;SDS011;2331;48.806;9.140;2024-03-25T00:01:45;5.87;;;2.50;;
4636;SDS011;2331;48.806;9.140;2024-03-25T00:04:12;5.50;;;2.63;;
4636;SDS011;2331;48.806;9.140;2024-03-25T00:06:38;4.40;;;2.40;;
4636;SDS011;2331;48.806;9.140;2024-03-25T00:09:04;5.82;;;2.47;;
4636;SDS011;2331;48.806;9.140;2024-03-25T00:11:32;3.53;;;2.30;;
4636;SDS011;2331;48.806;9.140;2024-03-25T00:13:59;3.28;;;2.10;;
4636;SDS011;2331;48.806;9.140;2024-03-25T00:16:25;4.70;;;2.37;;
4636;SDS011;2331;48.806;9.140;2024-03-25T00:18:53;7.47;;;2.88;;
4636;SDS011;2331;48.806;9.140;2024-03-25T00:21:19;9.35;;;3.00;;
4636;SDS011;2331;48.806;9.140;2024-03-25T00:23:46;4.60;;;2.45;;
4636;SDS011;2331;48.806;9.140;2024-03-25T00:26:11;4.50;;;2.30;;
4636;SDS011;2331;48.806;9.140;2024-03-25T00:28:38;4.28;;;2.35;;
4636;SDS011;2331;48.806;9.140;2024-03-25T00:31:04;7.10;;;2.70;;
4636;SDS011;2331;48.806;9.140;2024-03-25T00:33:31;7.82;;;2.70;;
4636;SDS011;2331;48.806;9.140;2024-03-25T00:35:59;4.50;;;2.30;;
4636;SDS011;2331;48.806;9.140;2024-03-25T00:38:25;9.88;;;3.40;;
4636;SDS011;2331;48.806;9.140;2024-03-25T00:40:51;7.03;;;2.50;;
4636;SDS011;2331;48.806;9.140;2024-03-25T00:43:18;6.25;;;2.20;;
4636;SDS011;2331;48.806;9.140;2024-03-25T00:45:45;4.45;;;2.20;;
4636;SDS011;2331;48.806;9.140;2024-03-25T00:48:11;4.60;;;2.60;;
4636;SDS011;2331;48.806;9.140;2024-03-25T00:50:37;7.00;;;3.20;;
4636;SDS011;2331;48.806;9.140;2024-03-25T00:53:05;4.70;;;2.53;;
4636;SDS011;2331;48.806;9.140;2024-03-25T00:55:32;4.60;;;2.30;;
4636;SDS011;2331;48.806;9.140;2024-03-25T00:58:01;4.18;;;2.40;;
4636;SDS011;2331;48.806;9.140;2024-03-25T01:00:26;5.00;;;2.75;;
4636;SDS011;2331;48.806;9.140;2024-03-25T01:02:53;3.92;;;2.10;;
4636;SDS011;2331;48.806;9.140;2024-03-25T01:05:19;4.83;;;2.20;;
4636;SDS011;2331;48.806;9.140;2024-03-25T01:07:46;5.45;;;2.90;;
4636;SDS011;2331;48.806;9.140;2024-03-25T01:10:13;5.83;;;2.50;;
4636;SDS011;2331;48.806;9.140;2024-03-25T01:12:40;5.13;;;2.50;;
4636;SDS011;2331;48.806;9.140;2024-03-25T01:15:06;5.30;;;2.80;;
4636;SDS011;2331;48.806;9.140;2024-03-25T01:17:35;6.65;;;2.70;;
4636;SDS011;2331;48.806;9.140;2024-03-25T01:20:01;4.30;;;2.63;;
4636;SDS011;2331;48.806;9.140;2024-03-25T01:22:35;6.60;;;2.75;;
4636;SDS011;2331;48.806;9.140;2024-03-25T01:25:01;5.57;;;2.58;;
4636;SDS011;2331;48.806;9.140;2024-03-25T01:27:29;5.22;;;2.67;;
4636;SDS011;2331;48.806;9.140;2024-03-25T01:29:55;8.68;;;3.75;;
4636;SDS011;2331;48.806;9.140;2024-03-25T01:32:21;12.48;;;3.13;;
4636;SDS011;2331;48.806;9.140;2024-03-25T01:34:47;5.37;;;2.47;;
4636;SDS011;2331;48.806;9.140;2024-03-25T01:37:14;8.30;;;2.60;;
4636;SDS011;2331;48.806;9.140;2024-03-25T01:39:40;8.00;;;3.07;;
4636;SDS011;2331;48.806;9.140;2024-03-25T01:42:07;5.05;;;2.63;;
4636;SDS011;2331;48.806;9.140;2024-03-25T01:44:34;5.90;;;2.73;;
4636;SDS011;2331;48.806;9.140;2024-03-25T01:47:02;8.13;;;2.55;;
4636;SDS011;2331;48.806;9.140;2024-03-25T01:49:28;7.88;;;2.50;;
4636;SDS011;2331;48.806;9.140;2024-03-25T01:51:55;5.05;;;2.72;;
4636;SDS011;2331;48.806;9.140;2024-03-25T01:54:22;7.45;;;3.25;;
4636;SDS011;2331;48.806;9.140;2024-03-25T01:56:49;7.05;;;3.03;;
4636;SDS011;2331;48.806;9.140;2024-03-25T01:59:16;6.13;;;3.10;;
4636;SDS011;2331;48.806;9.140;2024-03-25T02:01:45;5.45;;;2.33;;
4636;SDS011;2331;48.806;9.140;2024-03-25T02:04:11;7.53;;;3.42;;
4636;SDS011;2331;48.806;9.140;2024-03-25T02:06:38;6.68;;;3.08;;
4636;SDS011;2331;48.806;9.140;2024-03-25T02:09:06;5.20;;;2.88;;
4636;SDS011;2331;48.806;9.140;2024-03-25T02:11:35;3.97;;;2.42;;
4636;SDS011;2331;48.806;9.140;2024-03-25T02:14:00;5.37;;;2.20;;
4636;SDS011;2331;48.806;9.140;2024-03-25T02:16:27;8.85;;;2.85;;
4636;SDS011;2331;48.806;9.140;2024-03-25T02:18:55;7.87;;;3.20;;
4636;SDS011;2331;48.806;9.140;2024-03-25T02:21:21;4.57;;;2.75;;
4636;SDS011;2331;48.806;9.140;2024-03-25T02:23:47;7.00;;;3.43;;
4636;SDS011;2331;48.806;9.140;2024-03-25T02:26:17;8.55;;;3.10;;
4636;SDS011;2331;48.806;9.140;2024-03-25T02:28:44;6.68;;;2.65;;
4636;SDS011;2331;48.806;9.140;2024-03-25T02:31:11;7.25;;;2.45;;
4636;SDS011;2331;48.806;9.140;2024-03-25T02:33:37;5.78;;;2.40;;
4636;SDS011;2331;48.806;9.140;2024-03-25T02:36:03;7.75;;;2.85;;
4636;SDS011;2331;48.806;9.140;2024-03-25T02:38:30;7.47;;;3.05;;
4636;SDS011;2331;48.806;9.140;2024-03-25T02:40:57;8.52;;;2.75;;
4636;SDS011;2331;48.806;9.140;2024-03-25T02:43:24;5.03;;;2.33;;
4636;SDS011;2331;48.806;9.140;2024-03-25T02:45:51;6.05;;;2.80;;
4636;SDS011;2331;48.806;9.140;2024-03-25T02:48:17;5.47;;;2.77;;
4636;SDS011;2331;48.806;9.140;2024-03-25T02:50:44;7.32;;;3.30;;
4636;SDS011;2331;48.806;9.140;2024-03-25T02:53:10;10.73;;;3.60;;
4636;SDS011;2331;48.806;9.140;2024-03-25T02:55:36;8.45;;;3.50;;
4636;SDS011;2331;48.806;9.140;2024-03-25T02:58:02;6.47;;;3.67;;
4636;SDS011;2331;48.806;9.140;2024-03-25T03:00:30;5.60;;;2.67;;
4636;SDS011;2331;48.806;9.140;2024-03-25T03:02:56;6.57;;;2.63;;
4636;SDS011;2331;48.806;9.140;2024-03-25T03:05:23;6.32;;;2.70;;
4636;SDS011;2331;48.806;9.140;2024-03-25T03:07:49;7.07;;;2.80;;
4636;SDS011;2331;48.806;9.140;2024-03-25T03:10:15;7.65;;;3.17;;
4636;SDS011;2331;48.806;9.140;2024-03-25T03:12:41;6.50;;;3.17;;
4636;SDS011;2331;48.806;9.140;2024-03-25T03:15:08;8.43;;;3.20;;
4636;SDS011;2331;48.806;9.140;2024-03-25T03:17:35;8.30;;;3.40;;
4636;SDS011;2331;48.806;9.140;2024-03-25T03:20:02;7.57;;;3.47;;
4636;SDS011;2331;48.806;9.140;2024-03-25T03:22:29;8.13;;;3.30;;
4636;SDS011;2331;48.806;9.140;2024-03-25T03:24:55;5.25;;;2.90;;
4636;SDS011;2331;48.806;9.140;2024-03-25T03:27:21;5.30;;;2.73;;
4636;SDS011;2331;48.806;9.140;2024-03-25T03:29:48;5.55;;;2.97;;
4636;SDS011;2331;48.806;9.140;2024-03-25T03:32:14;10.77;;;3.40;;
4636;SDS011;2331;48.806;9.140;2024-03-25T03:34:42;6.20;;;3.13;;
4636;SDS011;2331;48.806;9.140;2024-03-25T03:37:08;5.00;;;2.85;;
4636;SDS011;2331;48.806;9.140;2024-03-25T03:39:35;7.07;;;3.00;;
4636;SDS011;2331;48.806;9.140;2024-03-25T03:42:00;7.70;;;3.00;;
4636;SDS011;2331;48.806;9.140;2024-03-25T03:44:27;5.07;;;2.95;;
4636;SDS011;2331;48.806;9.140;2024-03-25T03:46:53;3.80;;;2.57;;
4636;SDS011;2331;48.806;9.140;2024-03-25T03:49:20;5.85;;;3.00;;
4636;SDS011;2331;48.806;9.140;2024-03-25T03:54:22;3.95;;;2.70;;
4636;SDS011;2331;48.806;9.140;2024-03-25T03:56:49;4.45;;;2.83;;
4636;SDS011;2331;48.806;9.140;2024-03-25T03:59:15;4.10;;;2.50;;
4636;SDS011;2331;48.806;9.140;2024-03-25T04:01:41;11.77;;;3.33;;
4636;SDS011;2331;48.806;9.140;2024-03-25T04:04:08;6.18;;;3.15;;
4636;SDS011;2331;48.806;9.140;2024-03-25T04:06:35;11.50;;;4.18;;
4636;SDS011;2331;48.806;9.140;2024-03-25T04:09:00;7.27;;;2.83;;
4636;SDS011;2331;48.806;9.140;2024-03-25T04:11:29;5.97;;;2.58;;
4636;SDS011;2331;48.806;9.140;2024-03-25T04:13:55;7.05;;;2.97;;
4636;SDS011;2331;48.806;9.140;2024-03-25T04:16:21;5.80;;;3.10;;
4636;SDS011;2331;48.806;9.140;2024-03-25T04:18:48;11.73;;;3.58;;
4636;SDS011;2331;48.806;9.140;2024-03-25T04:21:14;7.25;;;3.00;;
4636;SDS011;2331;48.806;9.140;2024-03-25T04:23:40;5.10;;;2.90;;
4636;SDS011;2331;48.806;9.140;2024-03-25T04:26:08;5.60;;;2.85;;
4636;SDS011;2331;48.806;9.140;2024-03-25T04:28:35;6.87;;;3.27;;
4636;SDS011;2331;48.806;9.140;2024-03-25T04:31:02;7.00;;;3.58;;
4636;SDS011;2331;48.806;9.140;2024-03-25T04:33:28;8.43;;;3.28;;
4636;SDS011;2331;48.806;9.140;2024-03-25T04:35:55;7.95;;;2.95;;
4636;SDS011;2331;48.806;9.140;2024-03-25T04:38:21;6.80;;;3.33;;
4636;SDS011;2331;48.806;9.140;2024-03-25T04:40:47;6.13;;;3.40;;
4636;SDS011;2331;48.806;9.140;2024-03-25T04:43:13;7.97;;;2.90;;
4636;SDS011;2331;48.806;9.140;2024-03-25T04:45:40;5.70;;;3.45;;
4636;SDS011;2331;48.806;9.140;2024-03-25T04:48:06;7.88;;;3.20;;
4636;SDS011;2331;48.806;9.140;2024-03-25T04:50:33;7.10;;;2.97;;
4636;SDS011;2331;48.806;9.140;2024-03-25T04:52:59;6.85;;;3.63;;
4636;SDS011;2331;48.806;9.140;2024-03-25T04:55:25;8.60;;;3.03;;
4636;SDS011;2331;48.806;9.140;2024-03-25T04:57:51;7.30;;;3.20;;
4636;SDS011;2331;48.806;9.140;2024-03-25T05:00:17;6.93;;;3.10;;
4636;SDS011;2331;48.806;9.140;2024-03-25T05:02:45;5.20;;;3.25;;
4636;SDS011;2331;48.806;9.140;2024-03-25T05:05:10;5.00;;;3.00;;
4636;SDS011;2331;48.806;9.140;2024-03-25T05:07:36;5.33;;;2.80;;
4636;SDS011;2331;48.806;9.140;2024-03-25T05:10:02;6.10;;;3.40;;
4636;SDS011;2331;48.806;9.140;2024-03-25T05:12:29;8.25;;;3.50;;
4636;SDS011;2331;48.806;9.140;2024-03-25T05:14:55;5.57;;;3.60;;
4636;SDS011;2331;48.806;9.140;2024-03-25T05:17:21;3.97;;;2.97;;
4636;SDS011;2331;48.806;9.140;2024-03-25T05:19:48;8.73;;;3.20;;
4636;SDS011;2331;48.806;9.140;2024-03-25T05:22:14;11.35;;;3.63;;
4636;SDS011;2331;48.806;9.140;2024-03-25T05:24:39;6.03;;;3.23;;
4636;SDS011;2331;48.806;9.140;2024-03-25T05:27:05;10.23;;;3.87;;
4636;SDS011;2331;48.806;9.140;2024-03-25T05:29:31;7.57;;;3.53;;
4636;SDS011;2331;48.806;9.140;2024-03-25T05:31:57;10.47;;;3.47;;
4636;SDS011;2331;48.806;9.140;2024-03-25T05:34:24;6.28;;;3.38;;
4636;SDS011;2331;48.806;9.140;2024-03-25T05:36:52;6.97;;;3.38;;
4636;SDS011;2331;48.806;9.140;2024-03-25T05:39:19;9.90;;;4.07;;
4636;SDS011;2331;48.806;9.140;2024-03-25T05:41:45;6.53;;;3.72;;
4636;SDS011;2331;48.806;9.140;2024-03-25T05:44:12;6.28;;;3.05;;
4636;SDS011;2331;48.806;9.140;2024-03-25T05:46:38;6.43;;;3.13;;
4636;SDS011;2331;48.806;9.140;2024-03-25T05:49:04;7.60;;;3.60;;
4636;SDS011;2331;48.806;9.140;2024-03-25T05:51:30;9.70;;;4.00;;
4636;SDS011;2331;48.806;9.140;2024-03-25T05:53:58;7.47;;;3.60;;
4636;SDS011;2331;48.806;9.140;2024-03-25T05:56:24;6.45;;;3.35;;
4636;SDS011;2331;48.806;9.140;2024-03-25T05:58:50;6.63;;;3.28;;
4636;SDS011;2331;48.806;9.140;2024-03-25T06:01:16;7.40;;;3.50;;
4636;SDS011;2331;48.806;9.140;2024-03-25T06:03:42;5.95;;;2.95;;
4636;SDS011;2331;48.806;9.140;2024-03-25T06:06:08;7.13;;;3.23;;
4636;SDS011;2331;48.806;9.140;2024-03-25T06:08:34;6.87;;;3.30;;
4636;SDS011;2331;48.806;9.140;2024-03-25T06:11:01;6.10;;;3.25;;
4636;SDS011;2331;48.806;9.140;2024-03-25T06:13:27;6.32;;;2.80;;
4636;SDS011;2331;48.806;9.140;2024-03-25T06:15:53;7.00;;;3.13;;
4636;SDS011;2331;48.806;9.140;2024-03-25T06:18:19;8.38;;;3.22;;
4636;SDS011;2331;48.806;9.140;2024-03-25T06:20:45;7.57;;;3.37;;
4636;SDS011;2331;48.806;9.140;2024-03-25T06:23:12;6.27;;;3.03;;
4636;SDS011;2331;48.806;9.140;2024-03-25T06:25:47;6.05;;;3.38;;
4636;SDS011;2331;48.806;9.140;2024-03-25T06:28:15;5.35;;;3.03;;
4636;SDS011;2331;48.806;9.140;2024-03-25T06:30:41;10.15;;;3.60;;
4636;SDS011;2331;48.806;9.140;2024-03-25T06:33:25;7.82;;;3.20;;
4636;SDS011;2331;48.806;9.140;2024-03-25T06:36:09;9.27;;;3.67;;
4636;SDS011;2331;48.806;9.140;2024-03-25T06:38:35;6.50;;;3.17;;
4636;SDS011;2331;48.806;9.140;2024-03-25T06:41:01;6.60;;;3.28;;
4636;SDS011;2331;48.806;9.140;2024-03-25T06:43:29;5.70;;;3.15;;
4636;SDS011;2331;48.806;9.140;2024-03-25T06:45:54;8.50;;;3.55;;
4636;SDS011;2331;48.806;9.140;2024-03-25T06:48:20;5.60;;;3.13;;
4636;SDS011;2331;48.806;9.140;2024-03-25T06:50:56;9.30;;;3.38;;
4636;SDS011;2331;48.806;9.140;2024-03-25T06:53:22;9.10;;;3.20;;
4636;SDS011;2331;48.806;9.140;2024-03-25T06:55:51;8.85;;;3.10;;
4636;SDS011;2331;48.806;9.140;2024-03-25T06:58:18;8.32;;;3.78;;
4636;SDS011;2331;48.806;9.140;2024-03-25T07:00:47;8.45;;;3.70;;
4636;SDS011;2331;48.806;9.140;2024-03-25T07:03:14;9.02;;;3.50;;
4636;SDS011;2331;48.806;9.140;2024-03-25T07:05:40;6.10;;;3.40;;
4636;SDS011;2331;48.806;9.140;2024-03-25T07:08:06;10.02;;;3.45;;
4636;SDS011;2331;48.806;9.140;2024-03-25T07:10:32;8.23;;;3.30;;
4636;SDS011;2331;48.806;9.140;2024-03-25T07:12:58;4.83;;;2.70;;
4636;SDS011;2331;48.806;9.140;2024-03-25T07:15:24;6.00;;;3.10;;
4636;SDS011;2331;48.806;9.140;2024-03-25T07:17:51;5.30;;;3.10;;
4636;SDS011;2331;48.806;9.140;2024-03-25T07:20:17;7.90;;;3.08;;
4636;SDS011;2331;48.806;9.140;2024-03-25T07:22:43;8.13;;;4.23;;
4636;SDS011;2331;48.806;9.140;2024-03-25T07:25:08;9.90;;;4.07;;
4636;SDS011;2331;48.806;9.140;2024-03-25T07:27:34;6.20;;;3.40;;
4636;SDS011;2331;48.806;9.140;2024-03-25T07:30:00;7.37;;;3.50;;
4636;SDS011;2331;48.806;9.140;2024-03-25T07:32:26;6.27;;;3.50;;
4636;SDS011;2331;48.806;9.140;2024-03-25T07:34:53;11.47;;;3.60;;
4636;SDS011;2331;48.806;9.140;2024-03-25T07:37:19;8.65;;;3.67;;
4636;SDS011;2331;48.806;9.140;2024-03-25T07:39:45;7.00;;;3.90;;
4636;SDS011;2331;48.806;9.140;2024-03-25T07:42:11;7.80;;;3.28;;
4636;SDS011;2331;48.806;9.140;2024-03-25T07:44:37;9.13;;;3.57;;
4636;SDS011;2331;48.806;9.140;2024-03-25T07:47:03;5.37;;;3.10;;
4636;SDS011;2331;48.806;9.140;2024-03-25T07:49:30;8.80;;;3.15;;
4636;SDS011;2331;48.806;9.140;2024-03-25T07:51:57;13.82;;;5.55;;
4636;SDS011;2331;48.806;9.140;2024-03-25T07:54:23;6.75;;;2.85;;
4636;SDS011;2331;48.806;9.140;2024-03-25T07:56:49;5.75;;;3.25;;
4636;SDS011;2331;48.806;9.140;2024-03-25T07:59:15;7.87;;;3.17;;
4636;SDS011;2331;48.806;9.140;2024-03-25T08:01:41;11.38;;;4.00;;
4636;SDS011;2331;48.806;9.140;2024-03-25T08:04:07;8.93;;;3.20;;
4636;SDS011;2331;48.806;9.140;2024-03-25T08:06:33;8.00;;;2.83;;
4636;SDS011;2331;48.806;9.140;2024-03-25T08:09:00;5.90;;;3.10;;
4636;SDS011;2331;48.806;9.140;2024-03-25T08:11:26;6.88;;;2.90;;
4636;SDS011;2331;48.806;9.140;2024-03-25T08:13:52;10.73;;;3.70;;
4636;SDS011;2331;48.806;9.140;2024-03-25T08:16:18;8.60;;;2.50;;
4636;SDS011;2331;48.806;9.140;2024-03-25T08:18:44;9.23;;;3.20;;
4636;SDS011;2331;48.806;9.140;2024-03-25T08:21:10;6.63;;;2.63;;
4636;SDS011;2331;48.806;9.140;2024-03-25T08:23:36;6.53;;;2.30;;
4636;SDS011;2331;48.806;9.140;2024-03-25T08:26:03;6.93;;;2.55;;
4636;SDS011;2331;48.806;9.140;2024-03-25T08:28:29;4.93;;;2.45;;
4636;SDS011;2331;48.806;9.140;2024-03-25T08:30:55;3.50;;;2.10;;
4636;SDS011;2331;48.806;9.140;2024-03-25T08:33:21;4.67;;;1.90;;
4636;SDS011;2331;48.806;9.140;2024-03-25T08:35:47;5.47;;;2.60;;
4636;SDS011;2331;48.806;9.140;2024-03-25T08:38:12;7.60;;;2.70;;
4636;SDS011;2331;48.806;9.140;2024-03-25T08:40:38;4.80;;;2.33;;
4636;SDS011;2331;48.806;9.140;2024-03-25T08:43:06;5.50;;;2.60;;
4636;SDS011;2331;48.806;9.140;2024-03-25T08:45:32;8.35;;;2.90;;
4636;SDS011;2331;48.806;9.140;2024-03-25T08:47:58;6.17;;;3.10;;
4636;SDS011;2331;48.806;9.140;2024-03-25T08:50:23;6.27;;;2.20;;
4636;SDS011;2331;48.806;9.140;2024-03-25T08:52:49;6.23;;;2.60;;
4636;SDS011;2331;48.806;9.140;2024-03-25T08:55:15;8.30;;;2.67;;
4636;SDS011;2331;48.806;9.140;2024-03-25T08:57:41;6.45;;;2.70;;
4636;SDS011;2331;48.806;9.140;2024-03-25T09:00:09;6.60;;;2.30;;
4636;SDS011;2331;48.806;9.140;2024-03-25T09:02:36;4.60;;;1.85;;
4636;SDS011;2331;48.806;9.140;2024-03-25T09:05:01;7.80;;;2.30;;
4636;SDS011;2331;48.806;9.140;2024-03-25T09:07:28;5.80;;;2.00;;
4636;SDS011;2331;48.806;9.140;2024-03-25T09:09:54;5.37;;;1.90;;
4636;SDS011;2331;48.806;9.140;2024-03-25T09:12:38;6.10;;;2.17;;
4636;SDS011;2331;48.806;9.140;2024-03-25T09:15:04;4.90;;;1.73;;
4636;SDS011;2331;48.806;9.140;2024-03-25T09:17:32;5.20;;;2.10;;
4636;SDS011;2331;48.806;9.140;2024-03-25T09:19:58;7.10;;;1.98;;
4636;SDS011;2331;48.806;9.140;2024-03-25T09:22:24;15.20;;;2.50;;
4636;SDS011;2331;48.806;9.140;2024-03-25T09:24:50;4.30;;;1.70;;
4636;SDS011;2331;48.806;9.140;2024-03-25T09:27:15;4.27;;;1.60;;
4636;SDS011;2331;48.806;9.140;2024-03-25T09:29:41;3.77;;;1.67;;
4636;SDS011;2331;48.806;9.140;2024-03-25T09:32:07;3.83;;;1.90;;
4636;SDS011;2331;48.806;9.140;2024-03-25T09:34:35;6.53;;;2.03;;
4636;SDS011;2331;48.806;9.140;2024-03-25T09:37:00;5.18;;;2.03;;
4636;SDS011;2331;48.806;9.140;2024-03-25T09:39:26;4.43;;;1.70;;
4636;SDS011;2331;48.806;9.140;2024-03-25T09:41:54;4.83;;;2.00;;
4636;SDS011;2331;48.806;9.140;2024-03-25T09:44:21;5.55;;;2.17;;
4636;SDS011;2331;48.806;9.140;2024-03-25T09:46:49;3.60;;;1.58;;
4636;SDS011;2331;48.806;9.140;2024-03-25T09:49:15;3.60;;;1.70;;
4636;SDS011;2331;48.806;9.140;2024-03-25T09:51:44;4.18;;;2.20;;
4636;SDS011;2331;48.806;9.140;2024-03-25T09:54:09;5.32;;;2.40;;
4636;SDS011;2331;48.806;9.140;2024-03-25T09:56:36;3.10;;;1.90;;
4636;SDS011;2331;48.806;9.140;2024-03-25T09:59:03;5.07;;;2.15;;
4636;SDS011;2331;48.806;9.140;2024-03-25T10:01:30;3.20;;;1.70;;
4636;SDS011;2331;48.806;9.140;2024-03-25T10:03:55;5.77;;;2.00;;
4636;SDS011;2331;48.806;9.140;2024-03-25T10:06:21;5.80;;;1.80;;
4636;SDS011;2331;48.806;9.140;2024-03-25T10:08:48;5.30;;;1.70;;
4636;SDS011;2331;48.806;9.140;2024-03-25T10:11:19;3.97;;;1.70;;
4636;SDS011;2331;48.806;9.140;2024-03-25T10:13:45;5.97;;;2.00;;
4636;SDS011;2331;48.806;9.140;2024-03-25T10:16:11;6.73;;;1.80;;
4636;SDS011;2331;48.806;9.140;2024-03-25T10:18:36;5.27;;;1.70;;
4636;SDS011;2331;48.806;9.140;2024-03-25T10:21:02;5.43;;;2.13;;
4636;SDS011;2331;48.806;9.140;2024-03-25T10:23:29;2.65;;;1.50;;
4636;SDS011;2331;48.806;9.140;2024-03-25T10:25:56;4.37;;;2.17;;
4636;SDS011;2331;48.806;9.140;2024-03-25T10:28:22;4.28;;;2.10;;
4636;SDS011;2331;48.806;9.140;2024-03-25T10:30:47;3.87;;;1.73;;
4636;SDS011;2331;48.806;9.140;2024-03-25T10:33:13;6.20;;;1.67;;
4636;SDS011;2331;48.806;9.140;2024-03-25T10:35:39;4.60;;;1.70;;
4636;SDS011;2331;48.806;9.140;2024-03-25T10:38:06;5.68;;;2.08;;
4636;SDS011;2331;48.806;9.140;2024-03-25T10:40:33;3.90;;;1.85;;
4636;SDS011;2331;48.806;9.140;2024-03-25T10:43:01;3.33;;;1.60;;
4636;SDS011;2331;48.806;9.140;2024-03-25T10:45:29;5.15;;;2.10;;
4636;SDS011;2331;48.806;9.140;2024-03-25T10:47:57;3.28;;;1.85;;
4636;SDS011;2331;48.806;9.140;2024-03-25T10:50:24;5.95;;;2.00;;
4636;SDS011;2331;48.806;9.140;2024-03-25T10:52:54;4.70;;;1.80;;
4636;SDS011;2331;48.806;9.140;2024-03-25T10:55:21;6.63;;;2.10;;
4636;SDS011;2331;48.806;9.140;2024-03-25T10:57:47;4.90;;;1.70;;
4636;SDS011;2331;48.806;9.140;2024-03-25T11:00:15;4.47;;;1.98;;
4636;SDS011;2331;48.806;9.140;2024-03-25T11:02:42;3.22;;;2.00;;
4636;SDS011;2331;48.806;9.140;2024-03-25T11:05:08;4.22;;;2.45;;
4636;SDS011;2331;48.806;9.140;2024-03-25T11:07:35;4.30;;;1.95;;
4636;SDS011;2331;48.806;9.140;2024-03-25T11:10:04;5.97;;;1.90;;
4636;SDS011;2331;48.806;9.140;2024-03-25T11:12:37;6.38;;;1.95;;
4636;SDS011;2331;48.806;9.140;2024-03-25T11:15:05;3.25;;;1.92;;
4636;SDS011;2331;48.806;9.140;2024-03-25T11:17:33;4.90;;;1.90;;
4636;SDS011;2331;48.806;9.140;2024-03-25T11:20:06;3.00;;;1.50;;
4636;SDS011;2331;48.806;9.140;2024-03-25T11:22:34;4.68;;;1.92;;
4636;SDS011;2331;48.806;9.140;2024-03-25T11:25:06;9.20;;;1.60;;
4636;SDS011;2331;48.806;9.140;2024-03-25T11:27:34;3.88;;;1.85;;
4636;SDS011;2331;48.806;9.140;2024-03-25T11:30:02;4.72;;;2.30;;
4636;SDS011;2331;48.806;9.140;2024-03-25T11:32:28;5.65;;;1.85;;
4636;SDS011;2331;48.806;9.140;2024-03-25T11:34:55;2.72;;;1.70;;
4636;SDS011;2331;48.806;9.140;2024-03-25T11:37:21;4.15;;;2.00;;
4636;SDS011;2331;48.806;9.140;2024-03-25T11:39:47;5.20;;;2.00;;
4636;SDS011;2331;48.806;9.140;2024-03-25T11:42:13;7.30;;;2.20;;
4636;SDS011;2331;48.806;9.140;2024-03-25T11:44:39;10.20;;;2.57;;
4636;SDS011;2331;48.806;9.140;2024-03-25T11:47:05;4.97;;;2.28;;
4636;SDS011;2331;48.806;9.140;2024-03-25T11:49:32;6.07;;;1.77;;
4636;SDS011;2331;48.806;9.140;2024-03-25T11:52:00;3.43;;;1.80;;
4636;SDS011;2331;48.806;9.140;2024-03-25T11:54:27;5.80;;;2.38;;
4636;SDS011;2331;48.806;9.140;2024-03-25T11:56:53;4.68;;;2.10;;
4636;SDS011;2331;48.806;9.140;2024-03-25T11:59:19;3.83;;;2.20;;
4636;SDS011;2331;48.806;9.140;2024-03-25T12:01:45;8.00;;;2.83;;
4636;SDS011;2331;48.806;9.140;2024-03-25T12:04:11;2.85;;;1.70;;
4636;SDS011;2331;48.806;9.140;2024-03-25T12:06:37;4.90;;;2.10;;
4636;SDS011;2331;48.806;9.140;2024-03-25T12:09:05;3.97;;;2.03;;
4636;SDS011;2331;48.806;9.140;2024-03-25T12:11:49;5.03;;;1.75;;
4636;SDS011;2331;48.806;9.140;2024-03-25T12:14:15;4.13;;;1.80;;
4636;SDS011;2331;48.806;9.140;2024-03-25T12:16:41;3.43;;;1.83;;
4636;SDS011;2331;48.806;9.140;2024-03-25T12:19:07;4.47;;;1.92;;
4636;SDS011;2331;48.806;9.140;2024-03-25T12:21:33;4.93;;;2.00;;
4636;SDS011;2331;48.806;9.140;2024-03-25T12:23:59;4.77;;;2.00;;
4636;SDS011;2331;48.806;9.140;2024-03-25T12:26:26;3.38;;;1.92;;
4636;SDS011;2331;48.806;9.140;2024-03-25T12:28:52;4.47;;;1.90;;
4636;SDS011;2331;48.806;9.140;2024-03-25T12:31:19;2.55;;;1.75;;
4636;SDS011;2331;48.806;9.140;2024-03-25T12:33:48;7.13;;;2.33;;
4636;SDS011;2331;48.806;9.140;2024-03-25T12:36:14;3.60;;;1.77;;
4636;SDS011;2331;48.806;9.140;2024-03-25T12:38:40;5.95;;;2.05;;
4636;SDS011;2331;48.806;9.140;2024-03-25T12:41:06;4.90;;;2.00;;
4636;SDS011;2331;48.806;9.140;2024-03-25T12:43:35;6.82;;;2.38;;
4636;SDS011;2331;48.806;9.140;2024-03-25T12:46:02;4.78;;;2.28;;
4636;SDS011;2331;48.806;9.140;2024-03-25T12:48:28;5.15;;;2.20;;
4636;SDS011;2331;48.806;9.140;2024-03-25T12:50:54;3.60;;;2.07;;
4636;SDS011;2331;48.806;9.140;2024-03-25T12:53:20;4.30;;;2.43;;
4636;SDS011;2331;48.806;9.140;2024-03-25T12:55:46;4.57;;;2.40;;
4636;SDS011;2331;48.806;9.140;2024-03-25T12:58:12;4.50;;;1.90;;
4636;SDS011;2331;48.806;9.140;2024-03-25T13:00:39;3.72;;;1.85;;
4636;SDS011;2331;48.806;9.140;2024-03-25T13:03:06;5.82;;;2.20;;
4636;SDS011;2331;48.806;9.140;2024-03-25T13:05:33;3.40;;;2.22;;
4636;SDS011;2331;48.806;9.140;2024-03-25T13:07:59;4.25;;;2.03;;
4636;SDS011;2331;48.806;9.140;2024-03-25T13:10:25;4.93;;;2.37;;
4636;SDS011;2331;48.806;9.140;2024-03-25T13:12:52;10.10;;;2.30;;
4636;SDS011;2331;48.806;9.140;2024-03-25T13:15:18;8.88;;;2.75;;
4636;SDS011;2331;48.806;9.140;2024-03-25T13:17:45;30.40;;;3.70;;
4636;SDS011;2331;48.806;9.140;2024-03-25T13:20:11;6.97;;;2.05;;
4636;SDS011;2331;48.806;9.140;2024-03-25T13:22:37;5.05;;;2.22;;
4636;SDS011;2331;48.806;9.140;2024-03-25T13:25:03;4.90;;;2.13;;
4636;SDS011;2331;48.806;9.140;2024-03-25T13:27:29;5.13;;;2.30;;
4636;SDS011;2331;48.806;9.140;2024-03-25T13:29:55;5.57;;;2.23;;
4636;SDS011;2331;48.806;9.140;2024-03-25T13:32:21;3.70;;;1.63;;
4636;SDS011;2331;48.806;9.140;2024-03-25T13:34:49;3.55;;;1.75;;
4636;SDS011;2331;48.806;9.140;2024-03-25T13:37:14;4.85;;;1.80;;
4636;SDS011;2331;48.806;9.140;2024-03-25T13:39:40;3.97;;;1.50;;
4636;SDS011;2331;48.806;9.140;2024-03-25T13:42:06;3.92;;;2.08;;
4636;SDS011;2331;48.806;9.140;2024-03-25T13:44:32;3.57;;;1.80;;
4636;SDS011;2331;48.806;9.140;2024-03-25T13:46:58;2.60;;;1.60;;
4636;SDS011;2331;48.806;9.140;2024-03-25T13:49:24;7.00;;;1.80;;
4636;SDS011;2331;48.806;9.140;2024-03-25T13:51:55;6.13;;;1.70;;
4636;SDS011;2331;48.806;9.140;2024-03-25T13:54:22;7.80;;;2.00;;
4636;SDS011;2331;48.806;9.140;2024-03-25T13:56:48;4.40;;;1.90;;
4636;SDS011;2331;48.806;9.140;2024-03-25T13:59:14;2.90;;;1.53;;
4636;SDS011;2331;48.806;9.140;2024-03-25T14:01:40;3.30;;;1.80;;
4636;SDS011;2331;48.806;9.140;2024-03-25T14:04:06;4.47;;;1.95;;
4636;SDS011;2331;48.806;9.140;2024-03-25T14:06:32;3.73;;;1.67;;
4636;SDS011;2331;48.806;9.140;2024-03-25T14:08:59;3.00;;;1.50;;
4636;SDS011;2331;48.806;9.140;2024-03-25T14:11:25;5.57;;;1.90;;
4636;SDS011;2331;48.806;9.140;2024-03-25T14:13:51;5.20;;;1.60;;
4636;SDS011;2331;48.806;9.140;2024-03-25T14:16:16;3.20;;;1.80;;
4636;SDS011;2331;48.806;9.140;2024-03-25T14:18:42;4.40;;;1.90;;
4636;SDS011;2331;48.806;9.140;2024-03-25T14:21:08;3.72;;;1.95;;
4636;SDS011;2331;48.806;9.140;2024-03-25T14:26:58;2.15;;;1.65;;
4636;SDS011;2331;48.806;9.140;2024-03-25T14:29:24;3.72;;;1.77;;
4636;SDS011;2331;48.806;9.140;2024-03-25T14:31:50;6.00;;;2.03;;
4636;SDS011;2331;48.806;9.140;2024-03-25T14:34:16;3.38;;;1.75;;
4636;SDS011;2331;48.806;9.140;2024-03-25T14:36:42;4.85;;;2.05;;
4636;SDS011;2331;48.806;9.140;2024-03-25T14:39:08;6.28;;;2.08;;
4636;SDS011;2331;48.806;9.140;2024-03-25T14:41:38;5.07;;;2.10;;
4636;SDS011;2331;48.806;9.140;2024-03-25T14:44:06;3.95;;;1.65;;
4636;SDS011;2331;48.806;9.140;2024-03-25T14:46:32;4.95;;;1.50;;
4636;SDS011;2331;48.806;9.140;2024-03-25T14:48:58;5.17;;;2.00;;
4636;SDS011;2331;48.806;9.140;2024-03-25T14:51:24;5.25;;;1.95;;
4636;SDS011;2331;48.806;9.140;2024-03-25T14:53:50;5.80;;;1.87;;
4636;SDS011;2331;48.806;9.140;2024-03-25T14:56:16;2.73;;;1.57;;
4636;SDS011;2331;48.806;9.140;2024-03-25T14:58:42;3.50;;;1.53;;
4636;SDS011;2331;48.806;9.140;2024-03-25T15:01:09;2.67;;;1.50;;
4636;SDS011;2331;48.806;9.140;2024-03-25T15:03:35;3.28;;;1.40;;
4636;SDS011;2331;48.806;9.140;2024-03-25T15:06:01;3.83;;;1.60;;
4636;SDS011;2331;48.806;9.140;2024-03-25T15:08:28;3.63;;;1.40;;
4636;SDS011;2331;48.806;9.140;2024-03-25T15:10:54;2.30;;;1.40;;
4636;SDS011;2331;48.806;9.140;2024-03-25T15:13:20;2.97;;;1.73;;
4636;SDS011;2331;48.806;9.140;2024-03-25T15:15:46;3.07;;;1.30;;
4636;SDS011;2331;48.806;9.140;2024-03-25T15:18:13;3.33;;;1.60;;